Time;durP1;ratioP1;P1;durP2;ratioP2;P2;SDS_P1;SDS_P2;PMS_P1;PMS_P2;Temp;Humidity;BMP_temperature;BMP_pressure;BME280_temperature;BME280_humidity;BME280_pressure;Samples;Min_cycle;Max_cycle;Signal;HPM_P1;HPM_P2
2023/10/05 00:02:10;;;;;;;0.52;0.52;;;16.70;61.80;;;;;;5155539;27;20377;-68
2023/10/05 00:04:41;;;;;;;0.50;0.50;;;16.80;62.00;;;;;;5147032;27;20057;-68
2023/10/05 00:07:26;;;;;;;;;;;16.80;62.00;;;;;;5157239;27;20031;-67
2023/10/05 00:09:52;;;;;;;0.40;0.40;;;16.80;62.00;;;;;;5155309;27;19910;-66
2023/10/05 00:12:20;;;;;;;0.68;0.68;;;16.90;61.90;;;;;;5155251;27;20098;-66
2023/10/05 00:17:32;;;;;;;0.52;0.52;;;16.90;61.80;;;;;;5155082;27;20078;-67
2023/10/05 00:19:58;;;;;;;0.60;0.60;;;16.90;61.90;;;;;;5156413;27;20478;-68
2023/10/05 00:22:24;;;;;;;0.40;0.40;;;17.00;61.90;;;;;;5156550;27;20027;-67
2023/10/05 00:24:49;;;;;;;0.40;0.40;;;17.00;61.90;;;;;;5156679;27;20026;-68
2023/10/05 00:27:15;;;;;;;4.60;0.95;;;17.00;61.90;;;;;;5157119;27;20030;-68
2023/10/05 00:29:41;;;;;;;0.60;0.60;;;17.20;61.80;;;;;;5156345;27;20046;-68
2023/10/05 00:35:20;;;;;;;0.40;0.40;;;17.20;61.80;;;;;;5133084;27;20037;-67
2023/10/05 00:37:48;;;;;;;0.70;0.70;;;17.30;61.80;;;;;;5140873;27;20032;-67
2023/10/05 00:40:24;;;;;;;1.15;0.98;;;17.30;61.80;;;;;;5135231;27;20158;-68
2023/10/05 00:42:50;;;;;;;0.90;0.82;;;17.30;61.70;;;;;;5135269;27;20086;-67
2023/10/05 00:45:17;;;;;;;0.73;0.73;;;17.30;61.70;;;;;;5134603;27;20472;-66
2023/10/05 00:47:43;;;;;;;0.65;0.65;;;17.30;61.70;;;;;;5134995;27;20042;-69
2023/10/05 00:50:11;;;;;;;0.60;0.60;;;17.30;61.60;;;;;;5135225;27;20510;-68
2023/10/05 00:52:37;;;;;;;0.80;0.80;;;17.30;61.60;;;;;;5134894;27;20019;-68
2023/10/05 00:55:10;;;;;;;0.60;0.60;;;17.30;61.60;;;;;;5134754;27;20035;-69
2023/10/05 00:57:36;;;;;;;0.45;0.45;;;17.30;61.60;;;;;;5143390;27;20022;-68
2023/10/05 01:02:31;;;;;;;1.00;1.00;;;17.40;61.70;;;;;;5155138;27;20027;-69
2023/10/05 01:04:57;;;;;;;1.30;1.20;;;17.40;61.70;;;;;;5156045;27;20605;-69
2023/10/05 01:12:35;;;;;;;1.85;0.82;;;17.40;61.50;;;;;;5154745;27;20023;-69
2023/10/05 01:15:03;;;;;;;1.58;1.48;;;17.40;61.50;;;;;;5155325;27;20018;-69
2023/10/05 01:17:31;;;;;;;0.40;0.40;;;17.40;61.50;;;;;;5155469;27;20030;-68
2023/10/05 01:20:11;;;;;;;0.93;0.90;;;17.40;61.50;;;;;;5155024;27;20387;-67
2023/10/05 01:22:39;;;;;;;2.33;1.38;;;17.40;61.60;;;;;;5153356;27;20035;-66
2023/10/05 01:25:06;;;;;;;1.67;1.58;;;17.50;61.70;;;;;;5152541;27;20030;-67
2023/10/05 01:27:32;;;;;;;0.57;0.57;;;17.40;61.70;;;;;;5153748;27;20038;-68
2023/10/05 01:29:58;;;;;;;1.08;0.98;;;17.50;61.70;;;;;;5154457;27;20149;-68
2023/10/05 01:32:24;;;;;;;1.00;0.85;;;17.60;61.60;;;;;;5155049;27;20097;-69
2023/10/05 01:34:50;;;;;;;0.40;0.40;;;17.60;61.60;;;;;;5153412;27;20026;-69
2023/10/05 01:37:23;;;;;;;0.60;0.60;;;17.60;61.50;;;;;;5148217;27;20110;-68
2023/10/05 01:39:49;;;;;;;0.50;0.50;;;17.70;61.30;;;;;;5140560;27;20027;-69
2023/10/05 01:42:16;;;;;;;0.50;0.50;;;17.70;61.20;;;;;;5147912;27;20030;-68
2023/10/05 01:44:46;;;;;;;0.52;0.52;;;17.70;61.30;;;;;;5154313;27;20117;-69
2023/10/05 01:47:14;;;;;;;0.80;0.80;;;17.70;61.20;;;;;;5154530;27;20499;-68
2023/10/05 01:49:41;;;;;;;0.40;0.40;;;17.80;61.20;;;;;;5154408;27;20027;-69
2023/10/05 01:52:07;;;;;;;0.40;0.40;;;17.80;61.10;;;;;;5154434;27;20384;-69
2023/10/05 01:54:34;;;;;;;2.10;0.75;;;17.80;61.10;;;;;;5154432;27;20018;-67
2023/10/05 01:57:04;;;;;;;0.55;0.55;;;17.80;60.90;;;;;;5154157;27;20106;-67
2023/10/05 01:59:34;;;;;;;0.52;0.52;;;17.80;60.90;;;;;;5152913;27;20031;-67
2023/10/05 02:02:12;;;;;;;0.40;0.40;;;17.90;60.80;;;;;;5133376;27;20160;-68
2023/10/05 02:04:44;;;;;;;0.73;0.73;;;17.90;60.80;;;;;;5145742;27;20110;-67
2023/10/05 02:07:15;;;;;;;0.50;0.50;;;17.90;60.60;;;;;;5154633;27;20102;-67
2023/10/05 02:09:41;;;;;;;0.50;0.50;;;17.90;60.50;;;;;;5150659;27;20022;-66
2023/10/05 02:12:06;;;;;;;0.40;0.40;;;17.90;60.40;;;;;;5152569;27;20035;-66
2023/10/05 02:14:41;;;;;;;0.40;0.40;;;17.90;60.30;;;;;;5153209;27;20025;-67
2023/10/05 02:17:10;;;;;;;0.40;0.40;;;17.90;60.30;;;;;;5152947;27;20551;-67
2023/10/05 02:19:38;;;;;;;0.45;0.45;;;17.90;60.20;;;;;;5153073;27;20019;-67
2023/10/05 02:22:10;;;;;;;0.68;0.68;;;17.90;60.20;;;;;;5152878;27;20045;-67
2023/10/05 02:24:36;;;;;;;0.47;0.47;;;17.90;60.20;;;;;;5153075;27;20440;-67
2023/10/05 02:29:34;;;;;;;0.60;0.60;;;17.90;60.10;;;;;;5153275;27;20023;-66
2023/10/05 02:34:39;;;;;;;0.82;0.82;;;17.90;60.00;;;;;;5153815;27;20444;-68
2023/10/05 02:37:06;;;;;;;0.50;0.50;;;17.90;59.90;;;;;;5137112;27;20083;-69
2023/10/05 02:39:38;;;;;;;0.40;0.40;;;17.90;59.90;;;;;;5152966;27;20089;-69
2023/10/05 02:42:15;;;;;;;1.42;1.33;;;17.90;59.80;;;;;;5151290;27;20030;-68
2023/10/05 02:44:43;;;;;;;0.50;0.50;;;17.90;59.80;;;;;;5153194;27;20034;-69
2023/10/05 02:47:10;;;;;;;0.57;0.57;;;17.90;59.80;;;;;;5153279;27;20030;-69
2023/10/05 02:49:47;;;;;;;0.80;0.80;;;17.90;59.70;;;;;;5152264;27;20387;-67
2023/10/05 02:52:15;;;;;;;0.50;0.50;;;17.90;59.80;;;;;;5135333;27;20484;-68
2023/10/05 02:54:45;;;;;;;1.17;1.17;;;17.90;59.80;;;;;;5137006;27;20101;-68
2023/10/05 02:57:13;;;;;;;1.35;1.05;;;17.90;59.80;;;;;;5154057;27;20123;-68
2023/10/05 02:59:40;;;;;;;3.60;2.35;;;17.90;59.70;;;;;;5154019;27;20026;-68
2023/10/05 03:02:07;;;;;;;0.85;0.80;;;17.90;59.80;;;;;;5154311;27;20140;-68
2023/10/05 03:04:46;;;;;;;3.85;1.40;;;17.90;59.70;;;;;;5154298;27;20022;-69
2023/10/05 03:07:17;;;;;;;0.50;0.50;;;17.90;59.70;;;;;;5152092;27;20027;-69
2023/10/05 03:09:44;;;;;;;0.50;0.50;;;17.90;59.70;;;;;;5153756;27;20102;-68
2023/10/05 03:12:13;;;;;;;0.90;0.90;;;17.90;59.70;;;;;;5151009;27;20023;-68
2023/10/05 03:14:44;;;;;;;0.50;0.50;;;17.90;59.60;;;;;;5153802;27;20077;-68
2023/10/05 03:17:18;;;;;;;3.03;1.25;;;17.90;59.60;;;;;;5153644;27;20025;-68
2023/10/05 03:19:43;;;;;;;0.45;0.45;;;17.90;59.60;;;;;;5151125;27;20023;-68
2023/10/05 03:22:12;;;;;;;0.50;0.50;;;18.00;59.60;;;;;;5152686;27;20071;-68
2023/10/05 03:24:38;;;;;;;1.13;0.95;;;17.90;59.70;;;;;;5154965;27;20026;-68
2023/10/05 03:27:05;;;;;;;0.50;0.50;;;18.00;59.70;;;;;;5156801;27;20145;-68
2023/10/05 03:29:35;;;;;;;0.45;0.45;;;18.00;59.70;;;;;;5156779;27;20019;-68
2023/10/05 03:34:34;;;;;;;0.60;0.60;;;18.10;59.60;;;;;;5157518;27;20023;-69
2023/10/05 03:37:08;;;;;;;0.60;0.60;;;18.10;59.50;;;;;;5151925;27;20036;-68
2023/10/05 03:39:38;;;;;;;0.50;0.50;;;18.10;59.50;;;;;;5150572;27;20023;-68
2023/10/05 03:42:05;;;;;;;;;;;18.10;59.50;;;;;;5157456;27;20041;-68
2023/10/05 03:44:31;;;;;;;0.60;0.60;;;18.20;59.50;;;;;;5157021;27;19910;-68
2023/10/05 03:46:57;;;;;;;0.45;0.45;;;18.20;59.40;;;;;;5156625;27;20456;-68
2023/10/05 03:49:23;;;;;;;0.50;0.50;;;18.20;59.40;;;;;;5155478;27;20060;-69
2023/10/05 03:51:50;;;;;;;1.85;1.55;;;18.20;59.40;;;;;;5156423;27;20043;-69
2023/10/05 03:54:18;;;;;;;1.58;1.40;;;18.20;59.40;;;;;;5157359;27;20019;-69
2023/10/05 03:57:04;;;;;;;0.65;0.65;;;18.20;59.30;;;;;;5156596;27;20516;-68
2023/10/05 03:59:31;;;;;;;0.70;0.70;;;18.20;59.30;;;;;;5156554;27;20370;-68
2023/10/05 04:01:59;;;;;;;0.40;0.40;;;18.20;59.30;;;;;;5155542;27;20433;-69
2023/10/05 04:04:28;;;;;;;0.40;0.40;;;18.20;59.20;;;;;;5156452;27;20063;-67
2023/10/05 04:06:54;;;;;;;0.65;0.65;;;18.30;59.20;;;;;;5146402;27;20392;-69
2023/10/05 04:09:20;;;;;;;0.70;0.70;;;18.30;59.10;;;;;;5135956;27;20032;-69
2023/10/05 04:11:46;;;;;;;0.52;0.52;;;18.30;59.10;;;;;;5145033;27;20035;-69
2023/10/05 04:14:12;;;;;;;0.40;0.40;;;18.30;59.10;;;;;;5155833;27;20069;-69
2023/10/05 04:16:38;;;;;;;1.02;0.88;;;18.30;59.00;;;;;;5156694;27;20130;-69
2023/10/05 04:19:04;;;;;;;0.45;0.45;;;18.30;59.00;;;;;;5137153;27;20042;-69
2023/10/05 04:21:30;;;;;;;1.55;1.10;;;18.30;59.00;;;;;;5134910;27;20039;-69
2023/10/05 04:23:59;;;;;;;0.88;0.85;;;18.30;59.00;;;;;;5135933;27;20027;-69
2023/10/05 04:26:33;;;;;;;1.20;1.13;;;18.30;59.10;;;;;;5135802;27;20023;-69
2023/10/05 04:29:04;;;;;;;0.40;0.40;;;18.30;59.20;;;;;;5137559;27;20038;-69
2023/10/05 04:31:31;;;;;;;0.60;0.60;;;18.30;59.30;;;;;;5156775;27;20030;-69
2023/10/05 04:33:57;;;;;;;0.70;0.70;;;18.20;59.40;;;;;;5155635;27;20029;-69
2023/10/05 04:36:24;;;;;;;0.77;0.77;;;18.20;59.50;;;;;;5154990;27;20035;-69
2023/10/05 04:38:54;;;;;;;0.55;0.55;;;18.20;59.50;;;;;;5134809;27;20031;-68
2023/10/05 04:41:31;;;;;;;0.40;0.40;;;18.20;59.70;;;;;;5134547;27;20035;-69
2023/10/05 04:43:57;;;;;;;0.63;0.63;;;18.20;59.80;;;;;;5135277;27;20514;-68
2023/10/05 04:46:24;;;;;;;0.57;0.57;;;18.10;59.90;;;;;;5134605;27;20118;-68
2023/10/05 04:48:55;;;;;;;0.45;0.45;;;18.10;60.10;;;;;;5134659;27;20031;-68
2023/10/05 04:51:30;;;;;;;0.50;0.50;;;18.00;60.30;;;;;;5134862;27;20023;-69
2023/10/05 04:53:59;;;;;;;0.50;0.50;;;18.00;60.50;;;;;;5135244;27;20019;-69
2023/10/05 04:56:35;;;;;;;0.40;0.40;;;17.90;60.60;;;;;;5135471;27;20476;-69
2023/10/05 05:07:01;;;;;;;0.68;0.68;;;17.70;61.50;;;;;;5155174;27;20031;-68
2023/10/05 05:09:33;;;;;;;0.40;0.40;;;17.70;61.70;;;;;;5154690;27;20030;-68
2023/10/05 05:12:03;;;;;;;0.40;0.40;;;17.60;61.70;;;;;;5154747;27;20027;-68
2023/10/05 05:14:33;;;;;;;0.47;0.47;;;17.60;61.80;;;;;;5155199;27;20019;-68
2023/10/05 05:17:02;;;;;;;1.30;1.20;;;17.60;62.10;;;;;;5155230;27;20029;-68
2023/10/05 05:19:30;;;;;;;0.60;0.60;;;17.60;62.20;;;;;;5155492;27;20439;-68
2023/10/05 05:22:00;;;;;;;1.15;1.10;;;17.60;62.30;;;;;;5152644;27;20027;-68
2023/10/05 05:24:29;;;;;;;0.80;0.80;;;17.60;62.40;;;;;;5136078;27;20027;-69
2023/10/05 05:27:10;;;;;;;0.57;0.57;;;17.60;62.50;;;;;;5152408;27;20306;-69
2023/10/05 05:29:35;;;;;;;;;;;17.60;62.60;;;;;;5143336;27;20023;-69
2023/10/05 05:32:11;;;;;;;0.30;0.30;;;17.60;62.90;;;;;;5147700;27;19930;-69
2023/10/05 05:34:37;;;;;;;0.90;0.57;;;17.60;62.90;;;;;;5144499;27;20034;-69
2023/10/05 05:37:08;;;;;;;3.80;1.25;;;17.50;63.00;;;;;;5135357;27;20038;-69
2023/10/05 05:39:39;;;;;;;1.80;1.65;;;17.60;63.10;;;;;;5152144;27;20026;-68
2023/10/05 05:42:14;;;;;;;;;;;17.60;63.10;;;;;;5143330;27;20480;-68
2023/10/05 05:44:41;;;;;;;0.47;0.47;;;17.60;63.10;;;;;;5137194;27;19907;-67
2023/10/05 05:47:10;;;;;;;1.08;0.93;;;17.60;63.10;;;;;;5134399;27;20042;-68
2023/10/05 05:49:40;;;;;;;0.80;0.80;;;17.60;63.20;;;;;;5144484;27;20042;-68
2023/10/05 05:52:10;;;;;;;0.50;0.50;;;17.60;63.30;;;;;;5132309;27;20038;-68
2023/10/05 05:54:36;;;;;;;1.60;1.25;;;17.60;63.30;;;;;;5132209;27;20575;-68
2023/10/05 05:57:08;;;;;;;0.45;0.45;;;17.60;63.30;;;;;;5131948;27;20020;-68
2023/10/05 05:59:39;;;;;;;0.50;0.50;;;17.70;63.30;;;;;;5131951;27;20027;-68
2023/10/05 06:02:08;;;;;;;0.60;0.60;;;17.70;63.30;;;;;;5140646;27;20508;-68
2023/10/05 06:04:40;;;;;;;0.43;0.43;;;17.80;63.30;;;;;;5132597;27;20026;-67
2023/10/05 06:07:13;;;;;;;0.82;0.82;;;17.80;63.30;;;;;;5132472;27;20042;-68
2023/10/05 06:09:43;;;;;;;0.50;0.50;;;17.80;63.30;;;;;;5143577;27;20341;-68
2023/10/05 06:12:12;;;;;;;1.33;1.23;;;17.80;63.30;;;;;;5135741;27;20034;-69
2023/10/05 06:14:40;;;;;;;2.50;0.95;;;17.80;63.20;;;;;;5143783;27;20295;-68
2023/10/05 06:17:09;;;;;;;0.50;0.50;;;17.80;63.10;;;;;;5132681;27;20049;-68
2023/10/05 06:19:38;;;;;;;1.33;1.23;;;17.80;63.10;;;;;;5132768;27;20124;-68
2023/10/05 06:22:06;;;;;;;0.40;0.40;;;17.80;63.10;;;;;;5131742;27;20027;-69
2023/10/05 06:24:32;;;;;;;1.42;0.98;;;17.90;63.30;;;;;;5144696;27;20030;-68
2023/10/05 06:27:00;;;;;;;0.47;0.47;;;18.00;63.40;;;;;;5132791;27;20031;-68
2023/10/05 06:29:25;;;;;;;0.73;0.73;;;18.10;63.40;;;;;;5131119;27;20019;-68
2023/10/05 06:31:51;;;;;;;0.93;0.93;;;18.10;63.00;;;;;;5146373;27;20034;-67
2023/10/05 06:34:16;;;;;;;0.60;0.60;;;18.20;62.90;;;;;;5145863;27;20049;-67
2023/10/05 06:36:42;;;;;;;0.50;0.50;;;18.20;62.90;;;;;;5150547;27;20572;-67
2023/10/05 06:39:14;;;;;;;0.50;0.50;;;18.30;62.80;;;;;;5142362;27;20106;-68
2023/10/05 06:41:41;;;;;;;0.70;0.70;;;18.30;62.60;;;;;;5146405;27;20023;-68
2023/10/05 06:44:10;;;;;;;0.60;0.60;;;18.30;62.50;;;;;;5145802;27;20498;-67
2023/10/05 06:46:42;;;;;;;0.50;0.50;;;18.30;62.30;;;;;;5152995;27;20038;-68
2023/10/05 06:49:09;;;;;;;1.00;0.80;;;18.30;62.30;;;;;;5148020;27;20494;-68
2023/10/05 06:51:39;;;;;;;0.40;0.40;;;18.40;62.60;;;;;;5151356;27;20387;-69
2023/10/05 06:54:05;;;;;;;0.40;0.40;;;18.50;62.50;;;;;;5144146;27;20018;-68
2023/10/05 06:56:30;;;;;;;0.60;0.60;;;18.50;62.20;;;;;;5153243;27;20023;-69
2023/10/05 06:58:56;;;;;;;0.73;0.73;;;18.60;62.30;;;;;;5153197;27;20051;-69
2023/10/05 07:01:21;;;;;;;7.22;1.15;;;18.70;62.30;;;;;;5148852;27;20075;-68
2023/10/05 07:03:52;;;;;;;1.48;1.17;;;18.80;62.10;;;;;;5151301;27;20026;-67
2023/10/05 07:06:24;;;;;;;0.60;0.60;;;18.90;62.30;;;;;;5148895;27;20042;-67
2023/10/05 07:08:52;;;;;;;0.50;0.50;;;19.20;63.30;;;;;;5155963;27;20029;-68
2023/10/05 07:11:18;;;;;;;0.60;0.60;;;19.50;63.10;;;;;;5143174;27;20039;-68
2023/10/05 07:13:46;;;;;;;1.65;0.88;;;19.80;64.30;;;;;;5140601;27;20377;-69
2023/10/05 07:16:12;;;;;;;0.50;0.50;;;20.30;64.70;;;;;;5156773;27;20052;-68
2023/10/05 07:18:39;;;;;;;0.55;0.55;;;20.70;63.60;;;;;;5158649;27;20113;-69
2023/10/05 07:21:08;;;;;;;0.50;0.50;;;21.20;62.60;;;;;;5156681;27;20102;-69
2023/10/05 07:23:34;;;;;;;0.60;0.60;;;21.40;61.50;;;;;;5153007;27;20395;-68
2023/10/05 07:25:59;;;;;;;0.68;0.68;;;21.70;60.00;;;;;;5138156;27;20467;-68
2023/10/05 07:28:25;;;;;;;0.95;0.95;;;21.80;59.70;;;;;;5147893;27;20099;-68
2023/10/05 07:30:51;;;;;;;1.73;1.15;;;22.00;58.70;;;;;;5157434;27;20037;-68
2023/10/05 07:33:17;;;;;;;0.98;0.95;;;22.20;56.70;;;;;;5152781;27;20475;-69
2023/10/05 07:35:43;;;;;;;0.40;0.40;;;22.30;56.40;;;;;;5139995;27;20035;-69
2023/10/05 07:38:11;;;;;;;0.40;0.40;;;22.30;55.60;;;;;;5157903;27;20026;-69
2023/10/05 07:40:37;;;;;;;1.20;1.02;;;22.50;55.80;;;;;;5141735;27;20019;-69
2023/10/05 07:43:06;;;;;;;6.00;0.75;;;22.70;55.50;;;;;;5148549;27;20041;-69
2023/10/05 07:45:32;;;;;;;0.50;0.50;;;22.80;55.40;;;;;;5142002;27;20038;-69
2023/10/05 07:47:59;;;;;;;0.65;0.65;;;23.10;55.00;;;;;;5144035;27;20075;-70
2023/10/05 07:50:28;;;;;;;0.85;0.75;;;23.20;53.90;;;;;;5156453;27;20045;-70
2023/10/05 07:52:55;;;;;;;0.73;0.73;;;23.30;52.90;;;;;;5153791;27;20106;-70
2023/10/05 07:55:21;;;;;;;0.52;0.52;;;23.30;52.70;;;;;;5151759;27;20074;-69
2023/10/05 07:57:46;;;;;;;0.52;0.52;;;23.40;51.40;;;;;;5154654;27;20106;-69
2023/10/05 08:00:13;;;;;;;1.85;1.50;;;23.50;51.40;;;;;;5142593;27;20387;-69
2023/10/05 08:02:39;;;;;;;0.40;0.40;;;23.70;51.40;;;;;;5135575;27;20052;-69
2023/10/05 08:05:09;;;;;;;0.50;0.50;;;23.80;51.40;;;;;;5143581;27;20464;-69
2023/10/05 08:07:35;;;;;;;0.50;0.50;;;24.00;51.20;;;;;;5136523;27;20110;-69
2023/10/05 08:10:00;;;;;;;0.70;0.70;;;24.20;50.50;;;;;;5142164;27;20122;-70
2023/10/05 08:12:29;;;;;;;0.50;0.50;;;24.30;49.70;;;;;;5151284;27;20083;-70
2023/10/05 08:14:54;;;;;;;0.50;0.50;;;24.40;49.60;;;;;;5135249;27;20034;-69
2023/10/05 08:17:21;;;;;;;0.65;0.65;;;24.50;49.60;;;;;;5135562;27;20027;-69
2023/10/05 08:19:46;;;;;;;0.55;0.55;;;24.70;49.40;;;;;;5149225;27;20022;-69
2023/10/05 08:22:13;;;;;;;0.50;0.50;;;24.80;48.60;;;;;;5154005;27;20034;-69
2023/10/05 08:24:39;;;;;;;0.50;0.50;;;24.80;48.50;;;;;;5144499;27;20462;-69
2023/10/05 08:27:04;;;;;;;0.60;0.60;;;24.90;48.60;;;;;;5135543;27;20027;-69
2023/10/05 08:29:30;;;;;;;1.30;0.90;;;25.00;48.90;;;;;;5137280;27;20075;-70
2023/10/05 08:31:56;;;;;;;0.95;0.95;;;25.20;48.70;;;;;;5155333;27;20049;-69
2023/10/05 08:34:22;;;;;;;0.40;0.40;;;25.30;47.70;;;;;;5150181;27;20022;-70
2023/10/05 08:36:54;;;;;;;0.50;0.50;;;25.40;46.40;;;;;;5154356;27;20508;-70
2023/10/05 08:39:35;;;;;;;0.60;0.60;;;25.30;46.30;;;;;;5150626;27;20110;-70
2023/10/05 08:42:06;;;;;;;0.50;0.50;;;25.30;46.40;;;;;;5141562;27;20031;-70
2023/10/05 08:44:38;;;;;;;0.50;0.50;;;25.30;45.80;;;;;;5151853;27;20075;-69
2023/10/05 08:47:08;;;;;;;0.63;0.63;;;25.30;46.00;;;;;;5153071;27;20080;-70
2023/10/05 08:49:34;;;;;;;0.50;0.50;;;25.30;45.90;;;;;;5155348;27;20421;-69
2023/10/05 08:51:59;;;;;;;0.40;0.40;;;25.30;45.50;;;;;;5155484;27;20023;-70
2023/10/05 08:54:28;;;;;;;3.60;1.60;;;25.30;45.00;;;;;;5142035;27;20020;-69
2023/10/05 08:56:58;;;;;;;1.13;1.02;;;25.20;45.10;;;;;;5151328;27;20467;-70
2023/10/05 08:59:26;;;;;;;1.60;0.90;;;25.30;45.50;;;;;;5153703;27;20026;-70
2023/10/05 09:01:54;;;;;;;0.52;0.52;;;25.30;44.60;;;;;;5156514;27;20107;-70
2023/10/05 09:04:29;;;;;;;0.68;0.68;;;25.30;44.80;;;;;;5133744;27;20138;-69
2023/10/05 09:06:59;;;;;;;0.47;0.47;;;25.40;44.70;;;;;;5139772;27;20026;-70
2023/10/05 09:09:39;;;;;;;0.68;0.68;;;25.50;44.80;;;;;;5153698;27;20455;-68
2023/10/05 09:12:38;;;;;;;0.57;0.57;;;25.60;44.90;;;;;;5152658;27;20109;-70
2023/10/05 09:20:37;;;;;;;0.40;0.40;;;26.00;43.90;;;;;;5152653;27;20535;-69
2023/10/05 09:23:05;;;;;;;0.47;0.47;;;26.20;42.80;;;;;;5147319;27;20032;-69
2023/10/05 09:25:36;;;;;;;0.40;0.40;;;26.30;42.10;;;;;;5151817;27;20502;-69
2023/10/05 09:28:19;;;;;;;0.50;0.50;;;26.20;42.10;;;;;;5132774;27;20023;-69
2023/10/05 09:30:59;;;;;;;0.47;0.47;;;26.30;42.30;;;;;;5150183;27;20459;-68
2023/10/05 09:33:27;;;;;;;0.93;0.93;;;26.50;42.40;;;;;;5147647;27;20021;-68
2023/10/05 09:36:06;;;;;;;1.13;1.08;;;26.60;41.80;;;;;;5148564;27;20037;-69
2023/10/05 09:38:40;;;;;;;2.92;1.13;;;26.60;41.70;;;;;;5147947;27;20022;-70
2023/10/05 09:41:08;;;;;;;0.82;0.80;;;26.60;41.60;;;;;;5133340;27;20059;-68
2023/10/05 09:43:40;;;;;;;1.20;0.85;;;26.60;41.20;;;;;;5137477;27;20019;-68
2023/10/05 09:46:09;;;;;;;0.40;0.40;;;26.50;41.20;;;;;;5131669;27;20039;-68
2023/10/05 09:48:39;;;;;;;0.50;0.50;;;26.50;41.40;;;;;;5131446;27;20563;-68
2023/10/05 09:51:10;;;;;;;0.70;0.70;;;26.40;41.50;;;;;;5151238;27;20031;-70
2023/10/05 09:53:38;;;;;;;0.40;0.40;;;26.40;41.80;;;;;;5146229;27;20034;-69
2023/10/05 09:56:04;;;;;;;0.40;0.40;;;26.50;41.70;;;;;;5132723;27;20145;-70
2023/10/05 09:58:30;;;;;;;0.32;0.32;;;26.50;41.50;;;;;;5143862;27;20050;-70
2023/10/05 10:00:57;;;;;;;1.02;0.80;;;26.40;41.50;;;;;;5152946;27;20475;-70
2023/10/05 10:03:23;;;;;;;0.57;0.57;;;26.40;41.10;;;;;;5144607;27;20207;-70
2023/10/05 10:05:59;;;;;;;0.50;0.50;;;26.30;41.30;;;;;;5152979;27;20022;-69
2023/10/05 10:08:27;;;;;;;0.50;0.50;;;26.20;41.50;;;;;;5152005;27;20387;-70
2023/10/05 10:11:09;;;;;;;0.75;0.75;;;26.20;41.00;;;;;;5152296;27;20027;-70
2023/10/05 10:13:38;;;;;;;0.43;0.43;;;26.00;41.30;;;;;;5143998;27;20552;-69
2023/10/05 10:16:16;;;;;;;4.00;1.70;;;26.00;41.80;;;;;;5132149;27;20076;-69
2023/10/05 10:18:44;;;;;;;0.40;0.40;;;26.20;41.90;;;;;;5135780;27;20046;-69
2023/10/05 10:21:24;;;;;;;0.38;0.38;;;26.20;41.90;;;;;;5131972;27;20488;-69
2023/10/05 10:24:18;;;;;;;0.40;0.40;;;26.30;41.80;;;;;;5137656;27;20031;-70
2023/10/05 10:27:11;;;;;;;1.55;1.20;;;26.30;41.40;;;;;;5145401;27;20288;-69
2023/10/05 10:29:47;;;;;;;0.50;0.50;;;26.20;41.00;;;;;;5147758;27;20027;-69
2023/10/05 10:32:18;;;;;;;0.50;0.50;;;26.10;41.20;;;;;;5132054;27;20126;-69
2023/10/05 10:34:50;;;;;;;0.50;0.50;;;26.10;41.20;;;;;;5145049;27;20015;-69
2023/10/05 10:37:44;;;;;;;0.40;0.40;;;25.90;41.30;;;;;;5152443;27;20463;-69
2023/10/05 10:45:33;;;;;;;0.60;0.60;;;25.70;42.10;;;;;;5141720;27;20027;-69
2023/10/05 10:47:59;;;;;;;1.13;0.70;;;25.80;42.10;;;;;;5156601;27;20046;-69
2023/10/05 10:50:31;;;;;;;0.50;0.50;;;25.80;42.00;;;;;;5155000;27;20058;-69
2023/10/05 10:53:00;;;;;;;0.43;0.43;;;25.80;41.90;;;;;;5150139;27;20030;-69
2023/10/05 10:55:42;;;;;;;0.57;0.57;;;25.80;41.90;;;;;;5135667;27;20084;-68
2023/10/05 10:58:12;;;;;;;0.30;0.30;;;26.00;42.00;;;;;;5152320;27;20034;-70
2023/10/05 11:03:15;;;;;;;1.85;0.95;;;26.20;41.50;;;;;;5149347;27;20062;-69
2023/10/05 11:05:43;;;;;;;1.08;0.93;;;26.20;41.50;;;;;;5147672;27;20029;-69
2023/10/05 11:08:10;;;;;;;0.98;0.98;;;26.20;41.00;;;;;;5156426;27;20033;-69
2023/10/05 11:10:36;;;;;;;0.63;0.63;;;26.20;41.20;;;;;;5143362;27;20027;-68
2023/10/05 11:13:14;;;;;;;0.80;0.80;;;26.20;41.10;;;;;;5149867;27;20041;-68
2023/10/05 11:16:00;;;;;;;1.20;1.10;;;26.10;41.10;;;;;;5135227;27;20011;-68
2023/10/05 11:18:26;;;;;;;0.63;0.63;;;26.10;41.00;;;;;;5156182;27;20064;-68
2023/10/05 11:20:52;;;;;;;0.55;0.55;;;26.10;41.40;;;;;;5148863;27;20030;-68
2023/10/05 11:23:25;;;;;;;0.40;0.40;;;26.10;41.20;;;;;;5149027;27;20060;-70
2023/10/05 11:25:52;;;;;;;0.50;0.50;;;26.00;41.20;;;;;;5148748;27;20485;-69
2023/10/05 11:28:25;;;;;;;0.80;0.77;;;26.10;41.20;;;;;;5153862;27;20058;-69
2023/10/05 11:30:53;;;;;;;0.50;0.50;;;25.90;41.10;;;;;;5154827;27;20387;-69
2023/10/05 11:33:19;;;;;;;0.73;0.70;;;25.80;41.10;;;;;;5148487;27;20026;-69
2023/10/05 11:35:48;;;;;;;0.40;0.40;;;25.80;41.30;;;;;;5150449;27;20011;-69
2023/10/05 11:38:16;;;;;;;0.50;0.50;;;25.70;41.70;;;;;;5139449;27;20391;-70
2023/10/05 11:40:53;;;;;;;0.50;0.50;;;25.70;41.90;;;;;;5150668;27;20560;-69
2023/10/05 11:43:20;;;;;;;0.47;0.47;;;25.70;41.90;;;;;;5148099;27;20038;-69
2023/10/05 11:46:16;;;;;;;0.75;0.75;;;25.60;42.10;;;;;;5136982;27;20030;-69
2023/10/05 11:48:48;;;;;;;0.65;0.65;;;25.50;42.10;;;;;;5148233;27;20528;-70
2023/10/05 11:51:16;;;;;;;0.40;0.40;;;25.50;42.10;;;;;;5134578;27;20091;-69
2023/10/05 11:53:43;;;;;;;1.15;1.05;;;25.50;42.50;;;;;;5141375;27;20101;-70
2023/10/05 11:56:09;;;;;;;0.45;0.45;;;25.50;42.60;;;;;;5133267;27;20023;-68
2023/10/05 11:58:40;;;;;;;0.40;0.40;;;25.50;42.70;;;;;;5134371;27;20024;-70
2023/10/05 12:01:09;;;;;;;0.70;0.70;;;25.50;42.70;;;;;;5151185;27;20150;-70
2023/10/05 12:03:43;;;;;;;0.52;0.52;;;25.70;43.00;;;;;;5149220;27;20148;-71
2023/10/05 12:06:11;;;;;;;0.40;0.40;;;25.70;42.70;;;;;;5135492;27;20407;-71
2023/10/05 12:08:36;;;;;;;1.15;1.13;;;25.70;42.60;;;;;;5141514;27;20014;-71
2023/10/05 12:11:02;;;;;;;1.27;1.02;;;25.70;42.60;;;;;;5156725;27;20030;-69
2023/10/05 12:13:29;;;;;;;0.40;0.40;;;25.90;42.90;;;;;;5153433;27;20023;-70
2023/10/05 12:15:55;;;;;;;0.50;0.50;;;26.00;42.40;;;;;;5151592;27;20520;-69
2023/10/05 12:18:22;;;;;;;0.50;0.50;;;26.20;42.10;;;;;;5156305;27;20483;-69
2023/10/05 12:20:49;;;;;;;2.92;1.63;;;26.30;42.10;;;;;;5142709;27;20026;-70
2023/10/05 12:23:15;;;;;;;0.50;0.50;;;26.50;42.10;;;;;;5147215;27;20027;-69
2023/10/05 12:25:41;;;;;;;0.57;0.57;;;26.70;41.60;;;;;;5152910;27;20030;-70
2023/10/05 12:28:08;;;;;;;0.30;0.30;;;26.70;41.60;;;;;;5156373;27;20035;-70
2023/10/05 12:30:39;;;;;;;0.75;0.75;;;26.70;41.10;;;;;;5152853;27;20027;-70
2023/10/05 12:33:06;;;;;;;0.50;0.50;;;26.70;41.10;;;;;;5150119;27;20035;-70
2023/10/05 12:35:32;;;;;;;0.60;0.60;;;26.80;40.90;;;;;;5151065;27;20101;-70
2023/10/05 12:37:58;;;;;;;0.60;0.60;;;26.70;40.30;;;;;;5155710;27;20121;-70
2023/10/05 12:40:33;;;;;;;2.95;0.82;;;26.70;40.60;;;;;;5142780;27;20026;-70
2023/10/05 12:43:00;;;;;;;0.50;0.50;;;26.70;40.60;;;;;;5149712;27;20123;-70
2023/10/05 12:45:26;;;;;;;0.57;0.57;;;26.60;40.30;;;;;;5137005;27;20023;-70
2023/10/05 12:47:53;;;;;;;0.50;0.50;;;26.50;40.30;;;;;;5139757;27;20552;-70
2023/10/05 12:50:20;;;;;;;0.55;0.55;;;26.30;40.30;;;;;;5154315;27;20462;-70
2023/10/05 12:52:49;;;;;;;0.60;0.60;;;26.30;40.20;;;;;;5150894;27;20098;-70
2023/10/05 12:55:15;;;;;;;0.47;0.47;;;26.20;40.50;;;;;;5135597;27;20027;-70
2023/10/05 12:57:44;;;;;;;0.50;0.50;;;26.10;40.70;;;;;;5138075;27;20444;-70
2023/10/05 13:00:19;;;;;;;0.57;0.57;;;26.10;40.90;;;;;;5154791;27;20497;-70
2023/10/05 13:02:52;;;;;;;0.47;0.47;;;26.20;41.00;;;;;;5151255;27;20034;-70
2023/10/05 13:05:19;;;;;;;0.50;0.50;;;26.10;41.00;;;;;;5138287;27;20024;-70
2023/10/05 13:07:46;;;;;;;0.40;0.40;;;26.20;41.00;;;;;;5136360;27;20031;-70
2023/10/05 13:10:21;;;;;;;0.47;0.47;;;26.20;41.00;;;;;;5142587;27;20107;-70
2023/10/05 13:12:48;;;;;;;1.08;0.95;;;26.30;41.00;;;;;;5136237;27;20022;-70
2023/10/05 13:15:15;;;;;;;0.40;0.40;;;26.30;41.00;;;;;;5134705;27;20019;-70
2023/10/05 13:17:41;;;;;;;0.70;0.70;;;26.30;41.00;;;;;;5134273;27;20019;-70
2023/10/05 13:20:14;;;;;;;1.02;0.90;;;26.30;41.10;;;;;;5150290;27;20471;-70
2023/10/05 13:22:44;;;;;;;0.63;0.60;;;26.30;41.10;;;;;;5151702;27;20046;-70
2023/10/05 13:25:10;;;;;;;0.52;0.52;;;26.20;41.10;;;;;;5149992;27;20082;-70
2023/10/05 13:27:36;;;;;;;0.50;0.50;;;26.20;41.20;;;;;;5154733;27;20035;-69
2023/10/05 13:30:03;;;;;;;0.60;0.60;;;26.20;41.40;;;;;;5142981;27;20027;-70
2023/10/05 13:32:31;;;;;;;0.40;0.40;;;26.20;41.50;;;;;;5136671;27;20461;-70
2023/10/05 13:34:57;;;;;;;0.77;0.77;;;26.20;41.30;;;;;;5147644;27;20015;-70
2023/10/05 13:37:22;;;;;;;0.30;0.30;;;26.10;41.40;;;;;;5145352;27;20030;-70
2023/10/05 13:39:48;;;;;;;0.57;0.52;;;26.00;41.30;;;;;;5144878;27;20472;-70
2023/10/05 13:42:25;;;;;;;0.43;0.43;;;25.90;41.30;;;;;;5134761;27;20023;-70